Sterling, North Dakota
Current Conditions -  °F | °C
As of 3:52 AM on Saturday 29 Nov 2014 (Local Time) from KBIS Reporting Station
Clear Clear  
Wind Chill: 10°   Ceiling: Unl
Heat Index: 19°   Visibility: 10mi
Dew Point: 17°   Wind: 7mph
Humidity: 92%   Direction: 310°NW
Pressure: 29.39"   Gusts: NA
Location:  46.81°N, 100.29°W
Report Text: KBIS 290952Z 31006KT 10SM CLR M07/M08 A2939 RMK AO2 SLP978 T10721083
Loading
Personal Weather Stations






























Interactive Weather Map New forecast layout! Learn more

10-Day Weather Forecast

Advertisements
Track Severe Weather on mobile